< < Back
Terminal Aerodrome Forecast


Current Version              Previous Versions:   1  2  3  4  5  6  7  8  9  

Terminal Aerodrome Forecast

965
FTUS44 KBMX 300500
TAFBHM
TAF
KBHM 300523Z 3006/3106 34012G20KT P6SM BKN030
     FM300900 35012KT P6SM BKN035
     FM301300 36012KT P6SM SCT025 BKN250
     FM310000 01005KT P6SM BKN200=



Latest METAR

522
SAUS70 KWBC 300600 RRB
MTRBHM
METAR KBHM 300553Z 35013G25KT 10SM OVC028 08/01 A3028 RMK AO2 SLP253
T00780011 10161 20078 401890033 51040


USA.gov is the U.S. government's official web portal to all federal, state and local government web resources and services.